createdAt,value
2018-07-24T00:01:33.969Z,23.50
2018-07-24T00:04:02.103Z,23.50
2018-07-24T00:06:30.233Z,23.50
2018-07-24T00:08:58.369Z,23.50
2018-07-24T00:11:26.504Z,23.40
2018-07-24T00:13:54.656Z,23.40
2018-07-24T00:16:22.809Z,23.40
2018-07-24T00:18:50.957Z,23.40
2018-07-24T00:21:19.080Z,23.40
2018-07-24T00:23:47.242Z,23.30
2018-07-24T00:26:15.366Z,23.30
2018-07-24T00:28:43.505Z,23.30
2018-07-24T00:31:11.648Z,23.30
2018-07-24T00:33:39.778Z,23.30
2018-07-24T00:36:07.910Z,23.30
2018-07-24T00:38:36.042Z,23.20
2018-07-24T00:41:04.162Z,23.20
2018-07-24T00:43:32.306Z,23.20
2018-07-24T00:46:00.450Z,23.20
2018-07-24T00:48:28.589Z,23.20
2018-07-24T00:50:56.715Z,23.10
2018-07-24T00:53:24.846Z,23.10
2018-07-24T00:55:52.985Z,23.10
2018-07-24T00:58:21.114Z,23.00
2018-07-24T01:00:49.253Z,23.00
2018-07-24T01:03:17.385Z,23.00
2018-07-24T01:05:45.534Z,23.00
2018-07-24T01:08:13.650Z,23.00
2018-07-24T01:10:41.832Z,23.00
2018-07-24T01:13:09.957Z,23.00
2018-07-24T01:15:38.086Z,22.90
2018-07-24T01:18:06.212Z,22.90
2018-07-24T01:20:34.330Z,22.90
2018-07-24T01:25:30.766Z,22.80
2018-07-24T01:27:59.135Z,22.80
2018-07-24T01:30:27.283Z,22.80
2018-07-24T01:32:55.409Z,22.70
2018-07-24T01:35:23.768Z,22.70
2018-07-24T01:37:51.895Z,22.70
2018-07-24T01:40:20.018Z,22.70
2018-07-24T01:42:48.133Z,22.60
2018-07-24T01:45:16.252Z,22.60
2018-07-24T01:47:44.390Z,22.60
2018-07-24T01:50:12.501Z,22.50
2018-07-24T01:52:40.658Z,22.50
2018-07-24T01:55:08.991Z,22.50
2018-07-24T01:57:37.179Z,22.50
2018-07-24T02:00:05.734Z,22.40
2018-07-24T02:05:01.803Z,22.40
2018-07-24T02:07:29.938Z,22.40
2018-07-24T02:09:58.083Z,22.40
2018-07-24T02:12:26.219Z,22.30
2018-07-24T02:14:54.341Z,22.30
2018-07-24T02:17:22.463Z,22.30
2018-07-24T02:19:50.576Z,22.30
2018-07-24T02:22:18.719Z,22.30
2018-07-24T02:24:46.838Z,22.30
2018-07-24T02:27:14.965Z,22.30
2018-07-24T02:29:43.187Z,22.20
2018-07-24T02:32:11.315Z,22.20
2018-07-24T02:34:39.432Z,22.20
2018-07-24T02:37:07.576Z,22.20
2018-07-24T02:39:35.705Z,22.20
2018-07-24T02:42:03.830Z,22.20
2018-07-24T02:44:31.971Z,22.20
2018-07-24T02:47:00.201Z,22.10
2018-07-24T02:49:28.317Z,22.10
2018-07-24T02:51:56.443Z,22.10
2018-07-24T02:54:24.557Z,22.10
2018-07-24T02:56:52.707Z,22.00
2018-07-24T02:59:20.982Z,22.00
2018-07-24T03:01:49.090Z,22.00
2018-07-24T03:04:17.238Z,22.00
2018-07-24T03:06:45.357Z,22.00
2018-07-24T03:09:13.506Z,21.90
2018-07-24T03:11:41.626Z,21.90
2018-07-24T03:14:09.783Z,21.90
2018-07-24T03:16:37.985Z,21.80
2018-07-24T03:19:06.119Z,21.80
2018-07-24T03:21:34.234Z,21.80
2018-07-24T03:24:02.395Z,21.80
2018-07-24T03:26:30.524Z,21.70
2018-07-24T03:28:58.649Z,21.70
2018-07-24T03:31:26.780Z,21.70
2018-07-24T03:33:54.922Z,21.60
2018-07-24T03:36:23.057Z,21.60
2018-07-24T03:38:51.183Z,21.60
2018-07-24T03:41:19.306Z,21.50
2018-07-24T03:43:47.435Z,21.50
2018-07-24T03:46:15.563Z,21.50
2018-07-24T03:48:43.711Z,21.50
2018-07-24T03:51:11.843Z,21.50
2018-07-24T03:53:39.962Z,21.40
2018-07-24T03:56:08.118Z,21.40
2018-07-24T03:58:36.275Z,21.40
2018-07-24T04:01:04.414Z,21.40
2018-07-24T04:03:32.578Z,21.40
2018-07-24T04:06:00.714Z,21.40
2018-07-24T04:08:28.843Z,21.40
2018-07-24T04:10:56.974Z,21.30
2018-07-24T04:13:25.117Z,21.30
2018-07-24T04:15:53.250Z,21.40
2018-07-24T04:18:21.390Z,21.40
2018-07-24T04:20:49.522Z,21.40
2018-07-24T04:23:17.655Z,21.40
2018-07-24T04:25:45.831Z,21.40
2018-07-24T04:28:13.961Z,21.40
2018-07-24T04:30:42.158Z,21.40
2018-07-24T04:33:10.279Z,21.40
2018-07-24T04:35:38.398Z,21.50
2018-07-24T04:38:06.552Z,21.50
2018-07-24T04:40:34.723Z,21.50
2018-07-24T04:43:02.867Z,21.50
2018-07-24T04:45:30.995Z,21.50
2018-07-24T04:47:59.138Z,21.50
2018-07-24T04:50:27.262Z,21.60
2018-07-24T04:52:55.404Z,21.50
2018-07-24T04:55:23.539Z,21.60
2018-07-24T04:57:51.674Z,21.60
2018-07-24T05:00:19.794Z,21.60
2018-07-24T05:02:47.957Z,21.60
2018-07-24T05:05:16.103Z,21.70
2018-07-24T05:10:12.163Z,21.70
2018-07-24T05:12:40.306Z,21.80
2018-07-24T05:17:36.355Z,21.80
2018-07-24T05:22:32.451Z,21.90
2018-07-24T05:25:00.591Z,22.00
2018-07-24T05:27:28.741Z,22.00
2018-07-24T05:29:56.865Z,22.00
2018-07-24T05:32:25.014Z,22.10
2018-07-24T05:34:53.157Z,22.10
2018-07-24T05:37:21.293Z,22.20
2018-07-24T05:39:49.481Z,22.20
2018-07-24T05:42:17.635Z,22.30
2018-07-24T05:44:45.772Z,22.40
2018-07-24T05:47:13.898Z,22.40
2018-07-24T05:49:42.077Z,22.50
2018-07-24T05:52:10.271Z,22.50
2018-07-24T05:54:38.433Z,22.50
2018-07-24T05:57:06.595Z,22.60
2018-07-24T05:59:34.734Z,22.70
2018-07-24T06:02:02.925Z,22.70
2018-07-24T06:04:31.011Z,22.80
2018-07-24T06:06:59.143Z,22.80
2018-07-24T06:09:27.297Z,22.80
2018-07-24T06:11:55.429Z,22.90
2018-07-24T06:14:23.637Z,22.90
2018-07-24T06:16:51.878Z,22.90
2018-07-24T06:19:19.896Z,23.00
2018-07-24T06:21:48.064Z,23.00
2018-07-24T06:24:16.151Z,23.10
2018-07-24T06:26:44.286Z,23.20
2018-07-24T06:29:12.455Z,23.20
2018-07-24T06:31:40.570Z,23.30
2018-07-24T06:34:08.711Z,23.30
2018-07-24T06:36:36.854Z,23.40
2018-07-24T06:39:09.298Z,23.40
2018-07-24T06:41:37.618Z,23.40
2018-07-24T06:44:05.784Z,23.50
2018-07-24T06:46:33.969Z,23.50
2018-07-24T06:49:02.339Z,23.60
2018-07-24T06:51:30.539Z,23.60
2018-07-24T06:53:58.599Z,23.70
2018-07-24T06:56:26.741Z,23.80
2018-07-24T06:58:54.877Z,23.80
2018-07-24T07:01:23.000Z,23.90
2018-07-24T07:03:51.133Z,24.00
2018-07-24T07:06:19.305Z,24.00
2018-07-24T07:08:47.470Z,24.10
2018-07-24T07:11:15.623Z,24.20
2018-07-24T07:13:43.768Z,24.20
2018-07-24T07:16:11.942Z,24.30
2018-07-24T07:18:40.070Z,24.40
2018-07-24T07:21:08.210Z,24.50
2018-07-24T07:23:36.345Z,24.50
2018-07-24T07:26:04.555Z,24.60
2018-07-24T07:28:32.667Z,24.70
2018-07-24T07:31:00.806Z,24.80
2018-07-24T07:33:28.947Z,24.90
2018-07-24T07:35:57.087Z,24.90
2018-07-24T07:38:25.250Z,25.00
2018-07-24T07:40:53.390Z,25.10
2018-07-24T07:43:21.550Z,25.20
2018-07-24T07:45:49.684Z,25.30
2018-07-24T07:48:17.822Z,25.40
2018-07-24T07:50:45.950Z,25.40
2018-07-24T07:53:14.098Z,25.50
2018-07-24T07:55:42.255Z,25.60
2018-07-24T07:58:10.406Z,25.70
2018-07-24T08:03:06.474Z,25.90
2018-07-24T08:05:34.608Z,25.90
2018-07-24T08:08:02.818Z,25.90
2018-07-24T08:10:31.026Z,26.00
2018-07-24T08:12:59.170Z,26.10
2018-07-24T08:15:27.301Z,26.20
2018-07-24T08:17:55.434Z,26.30
2018-07-24T08:20:23.756Z,26.30
2018-07-24T08:22:51.957Z,26.40
2018-07-24T08:25:20.126Z,26.50
2018-07-24T08:27:48.320Z,26.60
2018-07-24T08:30:16.442Z,26.70
2018-07-24T08:32:44.594Z,26.70
2018-07-24T08:35:12.750Z,26.80
2018-07-24T08:37:40.874Z,26.80
2018-07-24T08:40:09.033Z,26.90
2018-07-24T08:42:37.606Z,26.90
2018-07-24T08:45:06.105Z,27.00
2018-07-24T08:47:34.240Z,27.10
2018-07-24T08:50:02.487Z,27.10
2018-07-24T08:52:30.700Z,27.20
2018-07-24T08:54:58.968Z,27.20
2018-07-24T08:57:26.874Z,27.20
2018-07-24T08:59:55.001Z,27.20
2018-07-24T09:02:23.157Z,27.30
2018-07-24T09:04:51.310Z,27.30
2018-07-24T09:07:19.453Z,27.40
2018-07-24T09:09:47.569Z,27.50
2018-07-24T09:12:15.999Z,27.50
2018-07-24T09:14:44.130Z,27.60
2018-07-24T09:17:12.258Z,27.60
2018-07-24T09:19:40.376Z,27.60
2018-07-24T09:22:08.502Z,27.70
2018-07-24T09:24:36.626Z,27.70
2018-07-24T09:27:04.876Z,27.70
2018-07-24T09:29:32.917Z,27.80
2018-07-24T09:32:01.069Z,27.90
2018-07-24T09:34:29.162Z,27.90
2018-07-24T09:36:57.315Z,28.00
2018-07-24T09:39:25.436Z,28.00
2018-07-24T09:41:53.591Z,28.10
2018-07-24T09:44:21.710Z,28.10
2018-07-24T09:46:49.830Z,28.10
2018-07-24T09:49:17.971Z,28.20
2018-07-24T09:51:46.091Z,28.20
2018-07-24T09:56:42.119Z,28.30
2018-07-24T10:01:38.165Z,28.40
2018-07-24T10:04:06.354Z,28.50
2018-07-24T10:06:35.027Z,28.50
2018-07-24T10:09:04.129Z,28.60
2018-07-24T10:11:32.275Z,28.60
2018-07-24T10:14:00.399Z,28.60
2018-07-24T10:16:28.553Z,28.70
2018-07-24T10:18:56.761Z,28.70
2018-07-24T10:21:24.834Z,28.80
2018-07-24T10:23:52.980Z,28.80
2018-07-24T10:26:21.106Z,28.90
2018-07-24T10:28:49.262Z,28.90
2018-07-24T10:31:17.399Z,28.90
2018-07-24T10:33:45.541Z,29.00
2018-07-24T10:36:13.739Z,29.00
2018-07-24T10:38:41.963Z,29.00
2018-07-24T10:41:10.137Z,29.10
2018-07-24T10:43:38.275Z,29.10
2018-07-24T10:46:06.450Z,29.20
2018-07-24T10:48:34.578Z,29.20
2018-07-24T10:51:02.726Z,29.20
2018-07-24T10:53:30.866Z,29.20
2018-07-24T10:55:59.011Z,29.30
2018-07-24T10:58:27.130Z,29.30
2018-07-24T11:00:55.281Z,29.30
2018-07-24T11:03:23.427Z,29.40
2018-07-24T11:05:51.570Z,29.40
2018-07-24T11:08:19.715Z,29.40
2018-07-24T11:10:47.874Z,29.50
2018-07-24T11:13:16.007Z,29.50
2018-07-24T11:15:44.141Z,29.50
2018-07-24T11:18:12.293Z,29.60
2018-07-24T11:20:40.423Z,29.60
2018-07-24T11:23:08.696Z,29.70
2018-07-24T11:25:36.749Z,29.80
2018-07-24T11:28:04.885Z,29.80
2018-07-24T11:30:33.030Z,29.80
2018-07-24T11:33:01.662Z,29.90
2018-07-24T11:35:29.761Z,29.90
2018-07-24T11:37:57.859Z,29.90
2018-07-24T11:40:26.011Z,30.00
2018-07-24T11:42:54.212Z,30.00
2018-07-24T11:45:22.344Z,30.00
2018-07-24T11:47:50.474Z,30.10
2018-07-24T11:50:18.618Z,30.10
2018-07-24T11:52:46.754Z,30.20
2018-07-24T11:55:14.906Z,30.10
2018-07-24T11:57:43.100Z,30.20
2018-07-24T12:00:11.246Z,30.20
2018-07-24T12:02:39.385Z,30.20
2018-07-24T12:05:07.543Z,30.20
2018-07-24T12:07:35.697Z,30.20
2018-07-24T12:10:04.246Z,30.30
2018-07-24T12:12:32.381Z,30.30
2018-07-24T12:15:00.577Z,30.30
2018-07-24T12:17:28.679Z,30.40
2018-07-24T12:19:56.927Z,30.40
2018-07-24T12:22:25.109Z,30.40
2018-07-24T12:24:53.246Z,30.50
2018-07-24T12:27:21.377Z,30.50
2018-07-24T12:29:49.523Z,30.50
2018-07-24T12:32:17.658Z,30.50
2018-07-24T12:34:45.794Z,30.60
2018-07-24T12:37:13.945Z,30.50
2018-07-24T12:39:42.075Z,30.60
2018-07-24T12:42:10.478Z,30.60
2018-07-24T12:44:38.634Z,30.60
2018-07-24T12:47:06.813Z,30.60
2018-07-24T12:49:34.941Z,30.60
2018-07-24T12:52:03.085Z,30.60
2018-07-24T12:54:31.218Z,30.70
2018-07-24T12:56:59.465Z,30.70
2018-07-24T12:59:27.585Z,30.70
2018-07-24T13:01:55.741Z,30.70
2018-07-24T13:04:23.898Z,30.70
2018-07-24T13:06:51.999Z,30.80
2018-07-24T13:09:20.122Z,30.70
2018-07-24T13:11:48.252Z,30.80
2018-07-24T13:14:16.383Z,30.80
2018-07-24T13:16:44.593Z,30.80
2018-07-24T13:19:12.664Z,30.70
2018-07-24T13:21:40.801Z,30.80
2018-07-24T13:24:08.925Z,30.80
2018-07-24T13:26:37.037Z,30.80
2018-07-24T13:29:05.210Z,30.80
2018-07-24T13:31:33.317Z,30.80
2018-07-24T13:34:01.450Z,30.80
2018-07-24T13:36:29.565Z,30.80
2018-07-24T13:38:57.706Z,30.80
2018-07-24T13:41:25.845Z,30.80
2018-07-24T13:43:54.053Z,30.90
2018-07-24T13:46:22.222Z,30.80
2018-07-24T13:48:50.333Z,30.80
2018-07-24T13:51:18.471Z,30.90
2018-07-24T13:53:47.408Z,30.90
2018-07-24T13:56:15.542Z,30.90
2018-07-24T13:58:43.697Z,30.90
2018-07-24T14:01:11.810Z,31.00
2018-07-24T14:03:39.958Z,31.00
2018-07-24T14:06:08.086Z,31.00
2018-07-24T14:08:36.230Z,31.00
2018-07-24T14:11:04.362Z,31.00
2018-07-24T14:13:32.506Z,31.00
2018-07-24T14:16:00.639Z,31.00
2018-07-24T14:20:56.706Z,30.90
2018-07-24T14:23:24.844Z,30.90
2018-07-24T14:25:52.994Z,30.90
2018-07-24T14:28:21.129Z,30.90
2018-07-24T14:30:49.271Z,30.90
2018-07-24T14:33:17.449Z,30.90
2018-07-24T14:35:45.597Z,30.90
2018-07-24T14:38:13.798Z,30.90
2018-07-24T14:40:41.958Z,30.90
2018-07-24T14:43:10.118Z,30.90
2018-07-24T14:45:38.296Z,30.90
2018-07-24T14:48:06.439Z,30.90
2018-07-24T14:50:34.586Z,30.90
2018-07-24T14:53:02.721Z,30.90
2018-07-24T14:55:30.881Z,30.90
2018-07-24T14:57:59.001Z,30.90
2018-07-24T15:00:27.178Z,30.90
2018-07-24T15:02:55.314Z,31.00
2018-07-24T15:05:23.451Z,31.00
2018-07-24T15:07:51.594Z,31.10
2018-07-24T15:10:19.727Z,31.10
2018-07-24T15:12:47.887Z,31.10
2018-07-24T15:15:16.009Z,31.10
2018-07-24T15:17:44.156Z,31.10
2018-07-24T15:20:12.303Z,31.10
2018-07-24T15:22:40.466Z,31.10
2018-07-24T15:25:08.598Z,31.10
2018-07-24T15:27:36.734Z,31.10
2018-07-24T15:30:06.730Z,31.10
2018-07-24T15:32:34.873Z,31.20
2018-07-24T15:35:03.646Z,31.20
2018-07-24T15:37:31.722Z,31.10
2018-07-24T15:39:59.861Z,31.20
2018-07-24T15:42:28.033Z,31.20
2018-07-24T15:44:56.172Z,31.20
2018-07-24T15:47:24.300Z,31.20
2018-07-24T15:49:52.438Z,31.20
2018-07-24T15:52:20.573Z,31.10
2018-07-24T15:54:48.706Z,31.10
2018-07-24T15:57:16.957Z,31.10
2018-07-24T15:59:45.306Z,31.20
2018-07-24T16:02:13.471Z,31.20
2018-07-24T16:04:41.618Z,31.20
2018-07-24T16:07:09.815Z,31.10
2018-07-24T16:09:38.378Z,31.10
2018-07-24T16:12:07.199Z,31.10
2018-07-24T16:14:35.333Z,31.10
2018-07-24T16:17:03.463Z,31.10
2018-07-24T16:19:31.597Z,31.10
2018-07-24T16:21:59.730Z,31.10
2018-07-24T16:24:27.918Z,31.10
2018-07-24T16:26:56.038Z,31.10
2018-07-24T16:29:24.174Z,31.10
2018-07-24T16:31:52.304Z,31.10
2018-07-24T16:34:20.463Z,31.10
2018-07-24T16:36:48.602Z,31.10
2018-07-24T16:41:44.775Z,31.10
2018-07-24T16:44:12.906Z,31.10
2018-07-24T16:46:41.041Z,31.00
2018-07-24T16:49:09.170Z,31.00
2018-07-24T16:51:37.297Z,31.00
2018-07-24T16:54:05.434Z,30.90
2018-07-24T16:56:33.571Z,30.90
2018-07-24T16:59:01.706Z,30.90
2018-07-24T17:01:29.840Z,30.90
2018-07-24T17:03:58.021Z,30.90
2018-07-24T17:06:26.194Z,30.80
2018-07-24T17:08:54.342Z,30.80
2018-07-24T17:11:22.527Z,30.80
2018-07-24T17:13:50.700Z,30.80
2018-07-24T17:16:18.830Z,30.80
2018-07-24T17:18:46.957Z,30.80
2018-07-24T17:21:15.090Z,30.80
2018-07-24T17:23:43.226Z,30.80
2018-07-24T17:26:11.483Z,30.70
2018-07-24T17:28:39.595Z,30.70
2018-07-24T17:31:08.106Z,30.70
2018-07-24T17:33:36.240Z,30.60
2018-07-24T17:36:04.629Z,30.60
2018-07-24T17:38:32.779Z,30.60
2018-07-24T17:41:01.022Z,30.60
2018-07-24T17:43:29.153Z,30.50
2018-07-24T17:45:57.621Z,30.50
2018-07-24T17:48:25.805Z,30.50
2018-07-24T17:50:53.926Z,30.50
2018-07-24T17:53:22.057Z,30.40
2018-07-24T17:55:50.177Z,30.40
2018-07-24T17:58:18.331Z,30.40
2018-07-24T18:00:46.473Z,30.40
2018-07-24T18:03:14.757Z,30.40
2018-07-24T18:05:42.913Z,30.30
2018-07-24T18:08:11.056Z,30.30
2018-07-24T18:10:39.216Z,30.30
2018-07-24T18:13:07.350Z,30.20
2018-07-24T18:15:35.583Z,30.20
2018-07-24T18:18:03.662Z,30.20
2018-07-24T18:20:31.795Z,30.10
2018-07-24T18:22:59.930Z,30.10
2018-07-24T18:25:28.064Z,30.10
2018-07-24T18:27:56.207Z,30.00
2018-07-24T18:30:24.339Z,30.00
2018-07-24T18:32:52.534Z,30.00
2018-07-24T18:35:20.613Z,29.90
2018-07-24T18:37:48.763Z,29.90
2018-07-24T18:40:16.934Z,29.90
2018-07-24T18:42:45.074Z,29.80
2018-07-24T18:45:13.230Z,29.80
2018-07-24T18:47:41.375Z,29.80
2018-07-24T18:50:09.510Z,29.70
2018-07-24T18:52:37.658Z,29.70
2018-07-24T18:55:05.807Z,29.70
2018-07-24T18:57:33.940Z,29.60
2018-07-24T19:00:02.105Z,29.60
2018-07-24T19:02:30.213Z,29.50
2018-07-24T19:04:58.374Z,29.50
2018-07-24T19:07:26.507Z,29.40
2018-07-24T19:09:54.644Z,29.40
2018-07-24T19:12:22.795Z,29.40
2018-07-24T19:14:50.943Z,29.30
2018-07-24T19:17:19.136Z,29.30
2018-07-24T19:19:47.314Z,29.20
2018-07-24T19:22:15.461Z,29.20
2018-07-24T19:24:43.577Z,29.10
2018-07-24T19:27:11.737Z,29.10
2018-07-24T19:29:39.905Z,29.10
2018-07-24T19:32:08.038Z,29.00
2018-07-24T19:34:36.203Z,28.90
2018-07-24T19:39:32.654Z,28.80
2018-07-24T19:42:00.822Z,28.80
2018-07-24T19:44:29.000Z,28.80
2018-07-24T19:46:57.128Z,28.70
2018-07-24T19:49:25.404Z,28.70
2018-07-24T19:51:53.474Z,28.60
2018-07-24T19:54:21.619Z,28.60
2018-07-24T19:56:49.781Z,28.50
2018-07-24T19:59:18.000Z,28.50
2018-07-24T20:01:46.182Z,28.50
2018-07-24T20:04:14.326Z,28.40
2018-07-24T20:06:42.470Z,28.40
2018-07-24T20:09:11.939Z,28.40
2018-07-24T20:11:40.087Z,28.30
2018-07-24T20:14:08.286Z,28.30
2018-07-24T20:16:36.507Z,28.20
2018-07-24T20:19:04.793Z,28.20
2018-07-24T20:21:32.960Z,28.10
2018-07-24T20:24:01.103Z,28.10
2018-07-24T20:26:29.578Z,28.10
2018-07-24T20:28:57.931Z,28.00
2018-07-24T20:31:26.184Z,28.00
2018-07-24T20:33:54.314Z,27.90
2018-07-24T20:36:22.586Z,27.90
2018-07-24T20:38:50.731Z,27.80
2018-07-24T20:41:18.918Z,27.80
2018-07-24T20:43:47.054Z,27.70
2018-07-24T20:46:15.198Z,27.70
2018-07-24T20:48:43.335Z,27.70
2018-07-24T20:51:11.494Z,27.60
2018-07-24T20:53:39.610Z,27.60
2018-07-24T20:56:07.842Z,27.60
2018-07-24T20:58:35.978Z,27.50
2018-07-24T21:01:04.177Z,27.50
2018-07-24T21:03:32.449Z,27.50
2018-07-24T21:06:00.617Z,27.50
2018-07-24T21:08:29.027Z,27.40
2018-07-24T21:10:57.167Z,27.40
2018-07-24T21:13:25.431Z,27.40
2018-07-24T21:15:53.568Z,27.30
2018-07-24T21:18:21.718Z,27.30
2018-07-24T21:20:49.926Z,27.20
2018-07-24T21:23:18.016Z,27.20
2018-07-24T21:25:46.149Z,27.10
2018-07-24T21:28:14.290Z,27.10
2018-07-24T21:30:42.444Z,27.10
2018-07-24T21:33:10.570Z,27.10
2018-07-24T21:35:38.689Z,27.00
2018-07-24T21:38:06.836Z,27.00
2018-07-24T21:40:35.093Z,27.00
2018-07-24T21:43:03.220Z,26.90
2018-07-24T21:45:31.386Z,26.90
2018-07-24T21:47:59.590Z,26.80
2018-07-24T21:50:27.747Z,26.80
2018-07-24T21:52:56.401Z,26.80
2018-07-24T21:55:24.571Z,26.70
2018-07-24T21:57:52.900Z,26.70
2018-07-24T22:00:21.039Z,26.70
2018-07-24T22:02:49.170Z,26.70
2018-07-24T22:05:17.533Z,26.70
2018-07-24T22:07:45.688Z,26.70
2018-07-24T22:10:19.233Z,26.60
2018-07-24T22:12:47.381Z,26.60
2018-07-24T22:15:21.170Z,26.60
2018-07-24T22:17:49.549Z,26.60
2018-07-24T22:20:17.946Z,26.60
2018-07-24T22:22:46.111Z,26.60
2018-07-24T22:25:14.894Z,26.60
2018-07-24T22:27:43.024Z,26.60
2018-07-24T22:30:11.634Z,26.60
2018-07-24T22:32:39.885Z,26.60
2018-07-24T22:35:09.245Z,26.50
2018-07-24T22:37:37.927Z,26.50
2018-07-24T22:40:06.299Z,26.50
2018-07-24T22:42:34.442Z,26.50
2018-07-24T22:45:02.579Z,26.60
2018-07-24T22:47:30.736Z,26.60
2018-07-24T22:49:58.897Z,26.50
2018-07-24T22:52:27.195Z,26.60
2018-07-24T22:54:55.325Z,26.50
2018-07-24T22:57:23.471Z,26.60
2018-07-24T22:59:51.891Z,26.60
2018-07-24T23:02:20.023Z,26.60
2018-07-24T23:04:48.157Z,26.60
2018-07-24T23:07:16.293Z,26.60
2018-07-24T23:09:44.426Z,26.50
2018-07-24T23:12:12.565Z,26.50
2018-07-24T23:14:40.686Z,26.50
2018-07-24T23:17:08.814Z,26.60
2018-07-24T23:19:36.954Z,26.60
2018-07-24T23:22:05.238Z,26.60
2018-07-24T23:24:33.383Z,26.50
2018-07-24T23:27:01.522Z,26.50
2018-07-24T23:29:29.747Z,26.50
2018-07-24T23:31:57.907Z,26.50
2018-07-24T23:34:26.047Z,26.50
2018-07-24T23:36:54.191Z,26.50
2018-07-24T23:39:22.319Z,26.50
2018-07-24T23:41:50.464Z,26.40
2018-07-24T23:44:18.597Z,26.40
2018-07-24T23:46:46.807Z,26.40
2018-07-24T23:49:14.873Z,26.40
2018-07-24T23:51:43.017Z,26.40
2018-07-24T23:54:11.145Z,26.40
2018-07-24T23:56:39.282Z,26.40
2018-07-24T23:59:07.437Z,26.30
